createdAt,value
2018-09-30T00:00:16.436Z,91.61
2018-09-30T00:01:25.870Z,92.09
2018-09-30T00:02:35.806Z,91.99
2018-09-30T00:03:45.757Z,91.61
2018-09-30T00:04:55.693Z,90.95
2018-09-30T00:06:05.379Z,90.95
2018-09-30T00:07:15.322Z,90.95
2018-09-30T00:08:25.001Z,90.99
2018-09-30T00:09:34.679Z,90.8
2018-09-30T00:10:44.632Z,90.52
2018-09-30T00:11:54.568Z,90.71
2018-09-30T00:13:04.503Z,90.23
2018-09-30T00:14:14.446Z,90.14
2018-09-30T00:15:23.879Z,89.95
2018-09-30T00:16:33.866Z,90.33
2018-09-30T00:17:43.814Z,90.05
2018-09-30T00:18:53.507Z,90.05
2018-09-30T00:20:02.944Z,90.52
2018-09-30T00:21:12.629Z,90.33
2018-09-30T00:22:22.558Z,90.52
2018-09-30T00:23:32.508Z,90.14
2018-09-30T00:24:42.444Z,90.42
2018-09-30T00:25:52.133Z,91.14
2018-09-30T00:27:02.072Z,90.71
2018-09-30T00:28:11.746Z,90.9
2018-09-30T00:29:21.691Z,91.19
2018-09-30T00:30:31.635Z,91.04
2018-09-30T00:31:41.573Z,90.85
2018-09-30T00:32:51.535Z,90.9
2018-09-30T00:34:01.486Z,91.14
2018-09-30T00:35:11.434Z,91.28
2018-09-30T00:36:21.273Z,91.24
2018-09-30T00:37:31.232Z,91.24
2018-09-30T00:38:40.911Z,91.04
2018-09-30T00:39:50.850Z,91.33
2018-09-30T00:41:00.799Z,91.61
2018-09-30T00:42:10.498Z,91.71
2018-09-30T00:43:20.196Z,91.8
2018-09-30T00:44:29.876Z,91.61
2018-09-30T00:45:39.550Z,91.61
2018-09-30T00:46:49.479Z,91.99
2018-09-30T00:47:59.424Z,91.8
2018-09-30T00:49:09.093Z,92.09
2018-09-30T00:50:19.030Z,91.89
2018-09-30T00:51:28.704Z,92.18
2018-09-30T00:52:38.664Z,92.37
2018-09-30T00:53:48.609Z,92.66
2018-09-30T00:54:58.536Z,92.85
2018-09-30T00:56:08.484Z,92.85
2018-09-30T00:57:18.433Z,92.94
2018-09-30T00:58:28.110Z,92.66
2018-09-30T00:59:37.542Z,92.85
2018-09-30T01:00:47.488Z,93.13
2018-09-30T01:01:57.414Z,92.75
2018-09-30T01:03:07.099Z,93.23
2018-09-30T01:04:17.037Z,92.85
2018-09-30T01:05:26.716Z,92.75
2018-09-30T01:06:36.386Z,92.75
2018-09-30T01:07:46.322Z,92.28
2018-09-30T01:08:55.996Z,92.37
2018-09-30T01:10:05.943Z,92.18
2018-09-30T01:11:15.623Z,92.28
2018-09-30T01:12:25.550Z,92.66
2018-09-30T01:13:35.511Z,92.47
2018-09-30T01:14:45.480Z,92.28
2018-09-30T01:15:55.416Z,92.94
2018-09-30T01:17:05.356Z,92.47
2018-09-30T01:18:15.301Z,93.32
2018-09-30T01:19:25.239Z,93.7
2018-09-30T01:20:35.172Z,93.7
2018-09-30T01:21:44.605Z,94.08
2018-09-30T01:22:54.293Z,93.99
2018-09-30T01:24:03.981Z,93.99
2018-09-30T01:25:13.916Z,94.18
2018-09-30T01:26:23.866Z,93.8
2018-09-30T01:27:33.794Z,94.46
2018-09-30T01:28:43.731Z,94.27
2018-09-30T01:29:53.393Z,94.56
2018-09-30T01:31:03.344Z,94.74
2018-09-30T01:32:13.278Z,95.51
2018-09-30T01:33:22.960Z,95.79
2018-09-30T01:34:32.897Z,95.65
2018-09-30T01:35:42.846Z,96.31
2018-09-30T01:36:52.520Z,96.78
2018-09-30T01:38:02.485Z,96.5
2018-09-30T01:39:12.169Z,96.41
2018-09-30T01:40:22.103Z,97.17
2018-09-30T01:41:31.788Z,96.97
2018-09-30T01:42:41.479Z,97.17
2018-09-30T01:43:50.907Z,96.59
2018-09-30T01:45:00.857Z,96.69
2018-09-30T01:46:10.794Z,96.59
2018-09-30T01:47:20.479Z,96.97
2018-09-30T01:48:30.406Z,96.88
2018-09-30T01:49:40.344Z,96.12
2018-09-30T01:50:50.281Z,96.03
2018-09-30T01:52:00.227Z,96.12
2018-09-30T01:53:09.896Z,95.46
2018-09-30T01:54:19.576Z,96.03
2018-09-30T01:55:29.514Z,95.51
2018-09-30T01:56:39.446Z,95.6
2018-09-30T01:57:49.379Z,96.22
2018-09-30T01:58:59.314Z,96.03
2018-09-30T02:00:08.989Z,95.46
2018-09-30T02:01:18.416Z,95.84
2018-09-30T02:02:27.853Z,95.84
2018-09-30T02:03:37.790Z,95.93
2018-09-30T02:04:47.797Z,96.69
2018-09-30T02:05:57.744Z,96.69
2018-09-30T02:07:07.676Z,96.78
2018-09-30T02:08:17.361Z,96.69
2018-09-30T02:09:27.291Z,96.41
2018-09-30T02:10:37.249Z,96.78
2018-09-30T02:11:47.174Z,96.88
2018-09-30T02:12:57.131Z,96.78
2018-09-30T02:14:06.814Z,96.97
2018-09-30T02:15:16.758Z,96.97
2018-09-30T02:16:26.171Z,96.97
2018-09-30T02:17:35.839Z,96.97
2018-09-30T02:18:45.793Z,97.07
2018-09-30T02:19:55.731Z,97.36
2018-09-30T02:21:05.680Z,97.45
2018-09-30T02:22:15.629Z,97.26
2018-09-30T02:23:25.294Z,97.45
2018-09-30T02:24:35.237Z,97.26
2018-09-30T02:25:44.913Z,97.74
2018-09-30T02:26:54.852Z,97.92
2018-09-30T02:28:04.796Z,97.92
2018-09-30T02:29:14.479Z,97.74
2018-09-30T02:30:24.149Z,98.11
2018-09-30T02:31:34.163Z,98.68
2018-09-30T02:32:43.858Z,98.59
2018-09-30T02:33:53.818Z,98.68
2018-09-30T02:35:03.511Z,98.87
2018-09-30T02:36:12.919Z,98.87
2018-09-30T02:37:22.872Z,99.06
2018-09-30T02:38:32.820Z,98.87
2018-09-30T02:39:42.764Z,99.73
2018-09-30T02:40:52.711Z,99.44
2018-09-30T02:42:02.398Z,99.63
2018-09-30T02:43:12.333Z,99.99
2018-09-30T02:44:22.283Z,99.99
2018-09-30T02:45:32.219Z,99.99
2018-09-30T02:46:41.921Z,99.99
2018-09-30T02:47:51.614Z,99.96
2018-09-30T02:49:01.038Z,99.99
2018-09-30T02:50:11.002Z,99.99
2018-09-30T02:51:20.966Z,99.99
2018-09-30T02:52:30.403Z,99.99
2018-09-30T02:53:39.835Z,99.99
2018-09-30T02:54:49.766Z,99.99
2018-09-30T02:55:59.719Z,99.99
2018-09-30T02:57:09.671Z,99.99
2018-09-30T02:58:19.356Z,99.99
2018-09-30T02:59:29.292Z,99.99
2018-09-30T03:00:39.233Z,99.99
2018-09-30T03:01:48.928Z,99.99
2018-09-30T03:02:58.895Z,99.99
2018-09-30T03:04:08.835Z,99.99
2018-09-30T03:05:18.791Z,99.99
2018-09-30T03:06:28.739Z,99.99
2018-09-30T03:07:38.415Z,99.99
2018-09-30T03:08:48.351Z,99.99
2018-09-30T03:09:58.282Z,99.99
2018-09-30T03:11:07.971Z,99.99
2018-09-30T03:12:17.663Z,99.99
2018-09-30T03:13:27.596Z,99.99
2018-09-30T03:14:37.534Z,99.99
2018-09-30T03:15:47.221Z,99.99
2018-09-30T03:16:56.899Z,99.99
2018-09-30T03:18:06.575Z,99.99
2018-09-30T03:19:16.522Z,99.99
2018-09-30T03:20:26.475Z,99.99
2018-09-30T03:21:36.156Z,99.99
2018-09-30T03:22:45.829Z,99.99
2018-09-30T03:23:55.773Z,99.99
2018-09-30T03:25:05.462Z,99.99
2018-09-30T03:26:15.157Z,99.99
2018-09-30T03:27:24.840Z,99.99
2018-09-30T03:28:34.773Z,99.99
2018-09-30T03:29:44.711Z,99.99
2018-09-30T03:30:54.650Z,99.99
2018-09-30T03:32:04.631Z,99.99
2018-09-30T03:33:14.584Z,99.99
2018-09-30T03:34:24.511Z,99.99
2018-09-30T03:35:33.933Z,99.99
2018-09-30T03:36:43.860Z,99.99
2018-09-30T03:37:53.797Z,99.99
2018-09-30T03:39:03.741Z,99.99
2018-09-30T03:40:13.678Z,99.99
2018-09-30T03:41:23.600Z,99.99
2018-09-30T03:42:33.536Z,99.99
2018-09-30T03:43:43.470Z,99.99
2018-09-30T03:44:53.397Z,99.99
2018-09-30T03:46:03.333Z,99.99
2018-09-30T03:47:13.280Z,99.99
2018-09-30T03:48:23.214Z,99.99
2018-09-30T03:49:33.203Z,99.99
2018-09-30T03:50:43.144Z,99.99
2018-09-30T03:51:52.819Z,99.99
2018-09-30T03:53:02.778Z,99.99
2018-09-30T03:54:12.717Z,99.99
2018-09-30T03:55:22.672Z,99.99
2018-09-30T03:56:32.518Z,99.99
2018-09-30T03:57:42.795Z,99.99
2018-09-30T03:58:52.753Z,99.99
2018-09-30T04:00:02.446Z,99.99
2018-09-30T04:01:11.873Z,99.99
2018-09-30T04:02:21.323Z,99.99
2018-09-30T04:03:31.259Z,99.99
2018-09-30T04:04:47.560Z,99.99
2018-09-30T04:05:57.523Z,99.99
2018-09-30T04:07:07.484Z,99.99
2018-09-30T04:08:17.156Z,99.99
2018-09-30T04:09:27.156Z,99.99
2018-09-30T04:10:37.338Z,99.99
2018-09-30T04:11:47.281Z,99.99
2018-09-30T04:12:56.972Z,99.99
2018-09-30T04:14:06.665Z,99.99
2018-09-30T04:15:16.593Z,99.99
2018-09-30T04:16:26.531Z,99.99
2018-09-30T04:17:36.453Z,99.99
2018-09-30T04:18:46.388Z,99.99
2018-09-30T04:19:56.074Z,99.99
2018-09-30T04:21:06.000Z,99.99
2018-09-30T04:22:15.680Z,99.99
2018-09-30T04:23:25.618Z,99.99
2018-09-30T04:24:35.551Z,99.99
2018-09-30T04:25:45.507Z,99.99
2018-09-30T04:26:55.458Z,99.99
2018-09-30T04:28:05.397Z,99.99
2018-09-30T04:29:15.331Z,99.99
2018-09-30T04:30:25.057Z,99.99
2018-09-30T04:31:34.753Z,99.99
2018-09-30T04:32:44.699Z,99.99
2018-09-30T04:33:54.634Z,99.99
2018-09-30T04:35:04.325Z,99.99
2018-09-30T04:36:14.002Z,99.99
2018-09-30T04:37:23.695Z,99.99
2018-09-30T04:38:33.397Z,99.99
2018-09-30T04:39:43.355Z,99.99
2018-09-30T04:40:53.290Z,99.99
2018-09-30T04:42:03.237Z,99.99
2018-09-30T04:43:13.242Z,99.99
2018-09-30T04:44:22.931Z,99.99
2018-09-30T04:45:32.370Z,99.99
2018-09-30T04:46:42.303Z,99.99
2018-09-30T04:47:51.733Z,99.99
2018-09-30T04:49:01.421Z,99.99
2018-09-30T04:50:11.363Z,99.99
2018-09-30T04:51:21.366Z,99.99
2018-09-30T04:52:31.305Z,99.99
2018-09-30T04:53:41.239Z,99.99
2018-09-30T04:54:50.932Z,99.99
2018-09-30T04:56:00.610Z,99.99
2018-09-30T04:57:10.549Z,99.99
2018-09-30T04:58:20.255Z,99.99
2018-09-30T04:59:29.415Z,99.99
2018-09-30T05:00:39.367Z,99.99
2018-09-30T05:01:49.082Z,99.99
2018-09-30T05:02:59.025Z,99.99
2018-09-30T05:04:08.971Z,99.99
2018-09-30T05:05:18.661Z,99.99
2018-09-30T05:06:28.101Z,99.99
2018-09-30T05:07:38.088Z,99.99
2018-09-30T05:08:47.778Z,99.99
2018-09-30T05:09:57.718Z,99.99
2018-09-30T05:11:07.423Z,99.99
2018-09-30T05:12:17.107Z,99.99
2018-09-30T05:13:26.796Z,99.99
2018-09-30T05:14:36.747Z,99.99
2018-09-30T05:15:46.689Z,99.99
2018-09-30T05:16:56.717Z,99.99
2018-09-30T05:18:06.151Z,99.99
2018-09-30T05:19:16.096Z,99.99
2018-09-30T05:20:25.780Z,99.99
2018-09-30T05:21:35.721Z,99.99
2018-09-30T05:22:45.686Z,99.99
2018-09-30T05:23:55.357Z,99.99
2018-09-30T05:25:05.295Z,99.99
2018-09-30T05:26:14.990Z,99.99
2018-09-30T05:27:24.434Z,99.99
2018-09-30T05:28:34.367Z,99.99
2018-09-30T05:29:44.301Z,99.99
2018-09-30T05:30:53.987Z,99.99
2018-09-30T05:32:03.679Z,99.99
2018-09-30T05:33:13.375Z,99.99
2018-09-30T05:34:23.315Z,99.99
2018-09-30T05:35:33.261Z,99.99
2018-09-30T05:36:43.210Z,99.99
2018-09-30T05:37:53.151Z,99.99
2018-09-30T05:39:03.108Z,99.99
2018-09-30T05:40:13.053Z,99.99
2018-09-30T05:41:22.999Z,99.99
2018-09-30T05:42:33.061Z,99.99
2018-09-30T05:43:42.765Z,99.99
2018-09-30T05:44:52.454Z,99.99
2018-09-30T05:46:02.132Z,99.99
2018-09-30T05:47:12.075Z,99.99
2018-09-30T05:48:22.002Z,99.99
2018-09-30T05:49:31.689Z,99.99
2018-09-30T05:50:41.637Z,99.99
2018-09-30T05:51:51.574Z,99.99
2018-09-30T05:53:01.505Z,99.99
2018-09-30T05:54:10.941Z,99.99
2018-09-30T05:55:20.890Z,99.99
2018-09-30T05:56:30.581Z,99.99
2018-09-30T05:57:40.715Z,99.99
2018-09-30T05:58:51.073Z,99.99
2018-09-30T06:00:00.753Z,99.99
2018-09-30T06:01:10.709Z,99.99
2018-09-30T06:02:20.664Z,99.99
2018-09-30T06:03:30.091Z,99.99
2018-09-30T06:04:39.776Z,99.99
2018-09-30T06:05:49.469Z,99.99
2018-09-30T06:06:59.170Z,99.99
2018-09-30T06:08:08.605Z,99.99
2018-09-30T06:09:18.371Z,99.99
2018-09-30T06:10:28.546Z,99.99
2018-09-30T06:11:38.490Z,99.99
2018-09-30T06:12:48.178Z,99.99
2018-09-30T06:13:58.431Z,99.99
2018-09-30T06:15:08.069Z,99.99
2018-09-30T06:16:18.011Z,99.99
2018-09-30T06:17:27.685Z,99.99
2018-09-30T06:18:37.391Z,99.99
2018-09-30T06:19:47.345Z,99.99
2018-09-30T06:20:57.284Z,99.99
2018-09-30T06:22:07.207Z,99.99
2018-09-30T06:23:17.149Z,99.96
2018-09-30T06:24:27.108Z,99.99
2018-09-30T06:25:36.544Z,99.99
2018-09-30T06:26:46.493Z,99.99
2018-09-30T06:27:56.439Z,99.99
2018-09-30T06:29:06.123Z,99.99
2018-09-30T06:30:16.070Z,99.99
2018-09-30T06:31:26.006Z,99.99
2018-09-30T06:32:35.749Z,99.99
2018-09-30T06:33:45.695Z,99.99
2018-09-30T06:34:55.621Z,99.99
2018-09-30T06:36:05.312Z,99.3
2018-09-30T06:37:15.418Z,99.44
2018-09-30T06:38:25.866Z,99.16
2018-09-30T06:39:35.557Z,98.87
2018-09-30T06:40:45.260Z,98.78
2018-09-30T06:41:54.939Z,97.83
2018-09-30T06:43:04.926Z,98.21
2018-09-30T06:44:14.613Z,98.11
2018-09-30T06:45:24.663Z,97.83
2018-09-30T06:46:35.052Z,97.64
2018-09-30T06:47:44.500Z,97.36
2018-09-30T06:48:54.185Z,96.97
2018-09-30T06:50:04.142Z,97.92
2018-09-30T06:51:14.081Z,98.02
2018-09-30T06:52:24.155Z,96.97
2018-09-30T06:53:34.235Z,96.97
2018-09-30T06:54:44.186Z,97.41
2018-09-30T06:55:53.978Z,96.74
2018-09-30T06:57:03.666Z,97.41
2018-09-30T06:58:13.612Z,96.36
2018-09-30T06:59:23.282Z,96.26
2018-09-30T07:00:32.976Z,95.89
2018-09-30T07:01:42.941Z,95.6
2018-09-30T07:02:52.628Z,95.51
2018-09-30T07:04:02.313Z,95.51
2018-09-30T07:05:12.244Z,95.51
2018-09-30T07:06:21.936Z,94.93
2018-09-30T07:07:31.352Z,94.7
2018-09-30T07:08:41.066Z,94.13
2018-09-30T07:09:51.011Z,93.08
2018-09-30T07:11:01.169Z,92.8
2018-09-30T07:12:11.118Z,92.32
2018-09-30T07:13:21.051Z,92.61
2018-09-30T07:14:30.748Z,91.94
2018-09-30T07:15:40.684Z,91.19
2018-09-30T07:16:50.511Z,91.47
2018-09-30T07:18:00.513Z,90.85
2018-09-30T07:19:10.488Z,90.47
2018-09-30T07:20:19.925Z,89.8
2018-09-30T07:21:29.873Z,88.85
2018-09-30T07:22:40.040Z,89.14
2018-09-30T07:23:50.268Z,89.04
2018-09-30T07:24:59.949Z,89.23
2018-09-30T07:26:09.913Z,88.28
2018-09-30T07:27:19.580Z,87.43
2018-09-30T07:28:29.520Z,87.76
2018-09-30T07:29:39.469Z,87.38
2018-09-30T07:30:48.900Z,86.8
2018-09-30T07:31:58.578Z,86.52
2018-09-30T07:33:08.519Z,85.28
2018-09-30T07:34:18.473Z,85.76
2018-09-30T07:35:28.450Z,85.19
2018-09-30T07:36:38.391Z,84.95
2018-09-30T07:37:48.330Z,85.33
2018-09-30T07:38:58.315Z,83.9
2018-09-30T07:40:07.994Z,83.81
2018-09-30T07:41:17.923Z,83.9
2018-09-30T07:42:27.869Z,83.81
2018-09-30T07:43:37.820Z,83.42
2018-09-30T07:44:47.497Z,83.33
2018-09-30T07:45:57.466Z,82.57
2018-09-30T07:47:07.429Z,82.09
2018-09-30T07:48:17.132Z,81.66
2018-09-30T07:49:27.073Z,81.76
2018-09-30T07:50:37.020Z,79.85
2018-09-30T07:51:46.964Z,80.04
2018-09-30T07:52:56.665Z,80.23
2018-09-30T07:54:06.646Z,79.09
2018-09-30T07:55:16.630Z,78.52
2018-09-30T07:56:26.331Z,77.47
2018-09-30T07:57:36.021Z,77.66
2018-09-30T07:58:45.716Z,76.84
2018-09-30T07:59:55.669Z,75.79
2018-09-30T08:01:05.372Z,76.18
2018-09-30T08:02:15.315Z,75.89
2018-09-30T08:03:25.001Z,74.94
2018-09-30T08:04:34.689Z,73.7
2018-09-30T08:05:44.635Z,73.74
2018-09-30T08:06:54.338Z,72.78
2018-09-30T08:08:04.279Z,72.5
2018-09-30T08:09:14.243Z,71.45
2018-09-30T08:10:24.211Z,71.11
2018-09-30T08:11:34.167Z,70.15
2018-09-30T08:12:44.134Z,70.06
2018-09-30T08:13:54.074Z,69.48
2018-09-30T08:15:04.030Z,69.39
2018-09-30T08:16:13.974Z,69.68
2018-09-30T08:17:24.099Z,69.14
2018-09-30T08:18:34.043Z,69.04
2018-09-30T08:19:43.994Z,67.9
2018-09-30T08:20:53.684Z,67.9
2018-09-30T08:22:03.620Z,67.42
2018-09-30T08:23:13.593Z,66.56
2018-09-30T08:24:23.788Z,66.22
2018-09-30T08:25:34.073Z,66.41
2018-09-30T08:26:44.023Z,66.47
2018-09-30T08:27:53.999Z,66.75
2018-09-30T08:29:03.954Z,66.75
2018-09-30T08:30:13.933Z,66.75
2018-09-30T08:31:23.880Z,66.41
2018-09-30T08:32:33.820Z,66.31
2018-09-30T08:33:43.763Z,65.93
2018-09-30T08:34:53.741Z,65.36
2018-09-30T08:36:03.194Z,64.53
2018-09-30T08:37:13.147Z,64.91
2018-09-30T08:38:23.118Z,64.34
2018-09-30T08:39:32.940Z,63.67
2018-09-30T08:40:43.318Z,63.2
2018-09-30T08:41:53.281Z,62.94
2018-09-30T08:43:02.985Z,61.79
2018-09-30T08:44:12.520Z,62.55
2018-09-30T08:45:22.099Z,62.65
2018-09-30T08:46:32.109Z,62.75
2018-09-30T08:47:42.046Z,62.75
2018-09-30T08:48:52.507Z,62.62
2018-09-30T08:50:02.465Z,62.52
2018-09-30T08:51:12.416Z,62.71
2018-09-30T08:52:22.110Z,62.62
2018-09-30T08:53:32.109Z,63.1
2018-09-30T08:54:41.800Z,63.1
2018-09-30T08:55:51.757Z,62.91
2018-09-30T08:57:01.864Z,62.65
2018-09-30T08:58:11.819Z,61.98
2018-09-30T08:59:21.518Z,60.96
2018-09-30T09:00:31.483Z,60.39
2018-09-30T09:01:41.454Z,59.24
2018-09-30T09:02:51.150Z,59.63
2018-09-30T09:04:01.245Z,58.86
2018-09-30T09:05:11.203Z,58.67
2018-09-30T09:06:21.169Z,58.38
2018-09-30T09:07:31.174Z,58.61
2018-09-30T09:08:40.864Z,58.51
2018-09-30T09:09:50.923Z,57.65
2018-09-30T09:11:01.506Z,57.46
2018-09-30T09:12:11.467Z,57.65
2018-09-30T09:13:21.160Z,57.55
2018-09-30T09:14:31.097Z,56.88
2018-09-30T09:15:41.196Z,56.62
2018-09-30T09:16:50.891Z,56.69
2018-09-30T09:18:00.852Z,56.91
2018-09-30T09:19:10.547Z,55.19
2018-09-30T09:20:20.505Z,54.74
2018-09-30T09:21:30.453Z,53.69
2018-09-30T09:22:40.038Z,53.97
2018-09-30T09:23:50.371Z,53.4
2018-09-30T09:25:00.333Z,52.92
2018-09-30T09:26:10.298Z,53.69
2018-09-30T09:27:20.247Z,53.49
2018-09-30T09:28:30.205Z,53.69
2018-09-30T09:29:40.168Z,54.26
2018-09-30T09:30:49.614Z,53.88
2018-09-30T09:31:59.567Z,53.11
2018-09-30T09:33:09.601Z,52.54
2018-09-30T09:34:19.829Z,52.28
2018-09-30T09:35:29.793Z,51.32
2018-09-30T09:36:39.494Z,51.89
2018-09-30T09:37:49.443Z,51.03
2018-09-30T09:38:59.164Z,50.77
2018-09-30T09:40:09.127Z,50.1
2018-09-30T09:41:19.095Z,49.65
2018-09-30T09:42:29.057Z,49.16
2018-09-30T09:43:38.757Z,49.93
2018-09-30T09:44:48.712Z,49.65
2018-09-30T09:45:58.672Z,49.16
2018-09-30T09:47:08.826Z,49.55
2018-09-30T09:48:18.990Z,48.04
2018-09-30T09:49:28.699Z,47.56
2018-09-30T09:50:38.645Z,47.56
2018-09-30T09:51:48.617Z,47.66
2018-09-30T09:52:58.308Z,47.27
2018-09-30T09:54:08.266Z,47.08
2018-09-30T09:55:18.231Z,46.5
2018-09-30T09:56:28.217Z,46.72
2018-09-30T09:57:37.907Z,46.79
2018-09-30T09:58:47.971Z,46.7
2018-09-30T09:59:58.232Z,46.79
2018-09-30T10:01:08.213Z,46.31
2018-09-30T10:02:18.172Z,46.05
2018-09-30T10:03:27.867Z,45.4
2018-09-30T10:04:37.837Z,45.11
2018-09-30T10:05:47.791Z,45.11
2018-09-30T10:06:57.738Z,45.21
2018-09-30T10:08:07.215Z,44.92
2018-09-30T10:09:17.515Z,44.92
2018-09-30T10:10:27.488Z,45.01
2018-09-30T10:11:37.208Z,46.05
2018-09-30T10:12:46.901Z,46.31
2018-09-30T10:13:56.338Z,46.31
2018-09-30T10:15:06.288Z,45.64
2018-09-30T10:16:16.279Z,45.37
2018-09-30T10:17:26.247Z,45.57
2018-09-30T10:18:35.957Z,45.37
2018-09-30T10:19:45.928Z,45.11
2018-09-30T10:20:55.894Z,44.34
2018-09-30T10:22:05.850Z,44.37
2018-09-30T10:23:15.284Z,44.82
2018-09-30T10:24:25.294Z,44.8
2018-09-30T10:25:35.264Z,45.18
2018-09-30T10:26:45.225Z,44.8
2018-09-30T10:27:55.301Z,44.32
2018-09-30T10:29:05.295Z,44.8
2018-09-30T10:30:15.263Z,45.18
2018-09-30T10:31:24.971Z,45.26
2018-09-30T10:32:34.940Z,45.26
2018-09-30T10:33:44.902Z,45.47
2018-09-30T10:34:54.849Z,46.12
2018-09-30T10:36:04.833Z,45.18
2018-09-30T10:37:14.521Z,45
2018-09-30T10:38:24.347Z,44.8
2018-09-30T10:39:35.011Z,44.13
2018-09-30T10:40:44.713Z,43.87
2018-09-30T10:41:54.665Z,43.48
2018-09-30T10:43:04.626Z,43
2018-09-30T10:44:14.585Z,43.38
2018-09-30T10:45:24.027Z,43.29
2018-09-30T10:46:33.975Z,43.94
2018-09-30T10:47:43.963Z,44.23
2018-09-30T10:48:53.416Z,44.23
2018-09-30T10:50:03.372Z,44.13
2018-09-30T10:51:13.065Z,44.23
2018-09-30T10:52:23.033Z,43.94
2018-09-30T10:53:33.003Z,44.24
2018-09-30T10:54:42.972Z,43.1
2018-09-30T10:55:52.936Z,43.1
2018-09-30T10:57:02.890Z,42.81
2018-09-30T10:58:12.855Z,42.33
2018-09-30T10:59:22.846Z,42.43
2018-09-30T11:00:32.828Z,43
2018-09-30T11:01:42.528Z,42.61
2018-09-30T11:02:52.480Z,42.52
2018-09-30T11:04:02.178Z,42.43
2018-09-30T11:05:12.164Z,42.23
2018-09-30T11:06:22.148Z,41.75
2018-09-30T11:07:32.105Z,41.29
2018-09-30T11:08:41.820Z,40.35
2018-09-30T11:09:51.824Z,40.33
2018-09-30T11:11:02.062Z,40.55
2018-09-30T11:12:11.768Z,41
2018-09-30T11:13:21.452Z,41.49
2018-09-30T11:14:31.164Z,41.12
2018-09-30T11:15:40.861Z,40.23
2018-09-30T11:16:50.844Z,40.25
2018-09-30T11:18:00.796Z,39.29
2018-09-30T11:19:10.477Z,39.58
2018-09-30T11:20:20.442Z,39.95
2018-09-30T11:21:30.141Z,40.05
2018-09-30T11:22:40.227Z,40.05
2018-09-30T11:23:50.218Z,40.05
2018-09-30T11:25:00.168Z,40.06
2018-09-30T11:26:09.627Z,39.29
2018-09-30T11:27:19.358Z,39.22
2018-09-30T11:28:29.367Z,39.03
2018-09-30T11:29:39.314Z,39.11
2018-09-30T11:30:49.275Z,39.97
2018-09-30T11:31:59.167Z,40.25
2018-09-30T11:33:09.228Z,40.45
2018-09-30T11:34:19.191Z,38.93
2018-09-30T11:35:28.642Z,38.26
2018-09-30T11:36:38.609Z,38.09
2018-09-30T11:37:48.585Z,37.32
2018-09-30T11:38:58.036Z,38.07
2018-09-30T11:40:07.758Z,38.45
2018-09-30T11:41:17.699Z,37.87
2018-09-30T11:42:27.641Z,39.03
2018-09-30T11:43:37.651Z,38.34
2018-09-30T11:44:47.375Z,38.43
2018-09-30T11:45:57.331Z,38.04
2018-09-30T11:47:06.775Z,37.97
2018-09-30T11:48:16.215Z,38.16
2018-09-30T11:49:25.935Z,37.89
2018-09-30T11:50:35.893Z,36.83
2018-09-30T11:51:45.838Z,37.6
2018-09-30T11:52:55.806Z,37.89
2018-09-30T11:54:05.761Z,38.18
2018-09-30T11:55:15.754Z,38.07
2018-09-30T11:56:25.732Z,38.09
2018-09-30T11:57:35.700Z,37.6
2018-09-30T11:58:45.409Z,37.6
2018-09-30T11:59:55.404Z,37.99
2018-09-30T12:01:05.457Z,37.43
2018-09-30T12:02:15.400Z,36.58
2018-09-30T12:03:25.310Z,35.52
2018-09-30T12:04:35.270Z,36
2018-09-30T12:05:45.230Z,35.91
2018-09-30T12:06:55.256Z,36.1
2018-09-30T12:08:04.959Z,35.73
2018-09-30T12:09:14.650Z,35.52
2018-09-30T12:10:24.081Z,35.62
2018-09-30T12:11:34.036Z,36.1
2018-09-30T12:12:43.993Z,35.91
2018-09-30T12:13:53.715Z,36.29
2018-09-30T12:15:03.671Z,36.1
2018-09-30T12:16:13.629Z,36.77
2018-09-30T12:17:23.585Z,36.93
2018-09-30T12:18:33.581Z,37.6
2018-09-30T12:19:43.726Z,36.76
2018-09-30T12:20:53.427Z,36.76
2018-09-30T12:22:03.401Z,36.56
2018-09-30T12:23:13.369Z,36.19
2018-09-30T12:24:22.805Z,36
2018-09-30T12:25:32.776Z,36.37
2018-09-30T12:26:42.485Z,36.1
2018-09-30T12:27:52.447Z,35.91
2018-09-30T12:29:02.403Z,35.25
2018-09-30T12:30:12.385Z,35.35
2018-09-30T12:31:22.372Z,35.42
2018-09-30T12:32:32.347Z,35.81
2018-09-30T12:33:42.315Z,35.6
2018-09-30T12:34:51.784Z,35.24
2018-09-30T12:36:01.480Z,35.42
2018-09-30T12:37:11.447Z,35.14
2018-09-30T12:38:21.415Z,34.77
2018-09-30T12:39:31.375Z,34.11
2018-09-30T12:40:41.087Z,34.09
2018-09-30T12:41:51.037Z,34.01
2018-09-30T12:43:00.997Z,32.87
2018-09-30T12:44:10.935Z,33.53
2018-09-30T12:45:20.919Z,33.82
2018-09-30T12:46:30.893Z,33.05
2018-09-30T12:47:40.847Z,32.49
2018-09-30T12:48:50.929Z,32.29
2018-09-30T12:50:00.905Z,33.15
2018-09-30T12:51:10.597Z,33.05
2018-09-30T12:52:20.323Z,32.86
2018-09-30T12:53:30.272Z,32.68
2018-09-30T12:54:40.235Z,32.49
2018-09-30T12:55:50.188Z,32.38
2018-09-30T12:56:59.906Z,33.05
2018-09-30T12:58:10.062Z,32.76
2018-09-30T12:59:20.347Z,32.95
2018-09-30T13:00:30.318Z,32.28
2018-09-30T13:01:40.025Z,32.47
2018-09-30T13:02:49.991Z,32.09
2018-09-30T13:03:59.954Z,31.99
2018-09-30T13:05:09.907Z,32.18
2018-09-30T13:06:19.613Z,33.05
2018-09-30T13:07:29.321Z,32.56
2018-09-30T13:08:39.018Z,32.76
2018-09-30T13:09:48.994Z,32.65
2018-09-30T13:10:58.940Z,33.23
2018-09-30T13:12:08.892Z,33.33
2018-09-30T13:13:18.592Z,33.03
2018-09-30T13:14:28.602Z,32.95
2018-09-30T13:15:38.621Z,32.47
2018-09-30T13:16:48.336Z,31.9
2018-09-30T13:17:58.303Z,31.8
2018-09-30T13:19:08.256Z,31.99
2018-09-30T13:20:18.221Z,32.09
2018-09-30T13:21:28.309Z,32.57
2018-09-30T13:22:38.273Z,32.57
2018-09-30T13:23:48.248Z,32.57
2018-09-30T13:24:58.223Z,31.7
2018-09-30T13:26:07.944Z,31.7
2018-09-30T13:27:17.915Z,31.98
2018-09-30T13:28:27.604Z,32.26
2018-09-30T13:29:37.569Z,31.77
2018-09-30T13:30:47.541Z,32.25
2018-09-30T13:31:57.243Z,32.25
2018-09-30T13:33:06.681Z,32.44
2018-09-30T13:34:16.641Z,32.64
2018-09-30T13:35:26.360Z,32.07
2018-09-30T13:36:36.325Z,31.98
2018-09-30T13:37:46.330Z,31.51
2018-09-30T13:38:56.284Z,31.9
2018-09-30T13:40:06.389Z,31.51
2018-09-30T13:41:17.316Z,30.85
2018-09-30T13:42:27.755Z,31.8
2018-09-30T13:43:37.713Z,32.18
2018-09-30T13:44:47.677Z,31.32
2018-09-30T13:45:57.433Z,31.51
2018-09-30T13:47:07.513Z,31.33
2018-09-30T13:48:17.481Z,30.85
2018-09-30T13:49:27.449Z,30.1
2018-09-30T13:50:37.159Z,30.29
2018-09-30T13:51:46.870Z,29.52
2018-09-30T13:53:01.324Z,29.98
2018-09-30T13:54:20.390Z,29.79
2018-09-30T13:55:33.405Z,30.56
2018-09-30T13:56:49.382Z,31.12
2018-09-30T13:57:59.357Z,31.12
2018-09-30T13:59:09.065Z,31.12
2018-09-30T14:00:19.034Z,30.85
2018-09-30T14:01:29.029Z,30.56
2018-09-30T14:02:38.744Z,30.76
2018-09-30T14:03:48.709Z,30.46
2018-09-30T14:04:58.655Z,30.76
2018-09-30T14:06:08.369Z,30.76
2018-09-30T14:07:18.087Z,30.74
2018-09-30T14:08:28.041Z,30.93
2018-09-30T14:09:38.008Z,31.12
2018-09-30T14:10:47.731Z,31.32
2018-09-30T14:11:57.460Z,31.49
2018-09-30T14:13:07.443Z,31.59
2018-09-30T14:14:17.419Z,31.88
2018-09-30T14:15:27.373Z,31.88
2018-09-30T14:16:37.081Z,32.17
2018-09-30T14:17:46.530Z,32.75
2018-09-30T14:18:56.496Z,33.12
2018-09-30T14:20:06.473Z,32.73
2018-09-30T14:21:16.431Z,32.25
2018-09-30T14:22:26.649Z,31.88
2018-09-30T14:23:36.594Z,31.8
2018-09-30T14:24:46.559Z,31.41
2018-09-30T14:25:56.536Z,31.32
2018-09-30T14:27:06.612Z,31.41
2018-09-30T14:28:16.838Z,30.93
2018-09-30T14:29:26.538Z,31.03
2018-09-30T14:30:36.502Z,31.03
2018-09-30T14:31:46.467Z,31.14
2018-09-30T14:32:56.442Z,31.14
2018-09-30T14:34:06.279Z,31.7
2018-09-30T14:35:16.555Z,31.9
2018-09-30T14:36:26.507Z,32.07
2018-09-30T14:37:36.200Z,31.88
2018-09-30T14:38:46.161Z,31.88
2018-09-30T14:39:55.882Z,32.17
2018-09-30T14:41:05.858Z,31.88
2018-09-30T14:42:15.573Z,32.07
2018-09-30T14:43:25.549Z,31.59
2018-09-30T14:44:35.515Z,31.49
2018-09-30T14:45:45.488Z,31.69
2018-09-30T14:46:55.449Z,31.78
2018-09-30T14:48:05.290Z,32.06
2018-09-30T14:49:15.801Z,33
2018-09-30T14:50:25.760Z,33
2018-09-30T14:51:35.454Z,33.29
2018-09-30T14:52:45.399Z,33.1
2018-09-30T14:53:55.426Z,33.67
2018-09-30T14:55:05.692Z,33.2
2018-09-30T14:56:15.675Z,33.1
2018-09-30T14:57:25.130Z,33.67
2018-09-30T14:58:34.575Z,32.92
2018-09-30T14:59:44.393Z,33.1
2018-09-30T15:00:54.234Z,32.92
2018-09-30T15:02:03.936Z,33.02
2018-09-30T15:03:13.639Z,32.73